createdAt,value
2016-12-06T00:00:08.036Z,965.76
2016-12-06T00:01:07.531Z,965.76
2016-12-06T00:02:08.101Z,965.74
2016-12-06T00:03:07.642Z,965.73
2016-12-06T00:04:08.190Z,965.77
2016-12-06T00:05:08.042Z,965.78
2016-12-06T00:06:07.519Z,965.86
2016-12-06T00:07:08.104Z,965.79
2016-12-06T00:08:07.705Z,965.81
2016-12-06T00:09:08.477Z,965.83
2016-12-06T00:10:08.099Z,965.83
2016-12-06T00:11:07.612Z,965.85
2016-12-06T00:12:08.186Z,965.85
2016-12-06T00:13:07.663Z,965.83
2016-12-06T00:14:08.238Z,965.89
2016-12-06T00:15:07.848Z,965.84
2016-12-06T00:16:07.463Z,965.86
2016-12-06T00:17:08.224Z,965.83
2016-12-06T00:18:08.692Z,965.86
2016-12-06T00:19:08.428Z,965.91
2016-12-06T00:20:08.014Z,965.85
2016-12-06T00:21:07.500Z,965.87
2016-12-06T00:22:08.094Z,965.86
2016-12-06T00:23:07.566Z,965.89
2016-12-06T00:24:08.255Z,965.89
2016-12-06T00:25:07.893Z,965.89
2016-12-06T00:26:07.341Z,965.95
2016-12-06T00:27:07.993Z,965.91
2016-12-06T00:28:07.522Z,965.94
2016-12-06T00:29:08.182Z,965.91
2016-12-06T00:30:07.742Z,965.87
2016-12-06T00:31:07.339Z,965.88
2016-12-06T00:32:07.860Z,965.95
2016-12-06T00:33:07.453Z,965.84
2016-12-06T00:34:08.320Z,965.89
2016-12-06T00:35:07.916Z,965.85
2016-12-06T00:36:07.432Z,965.86
2016-12-06T00:37:07.977Z,965.94
2016-12-06T00:38:07.521Z,965.88
2016-12-06T00:39:08.246Z,965.89
2016-12-06T00:40:07.690Z,965.86
2016-12-06T00:41:08.253Z,965.88
2016-12-06T00:42:07.826Z,965.93
2016-12-06T00:43:07.584Z,965.99
2016-12-06T00:44:08.259Z,965.99
2016-12-06T00:45:07.771Z,965.98
2016-12-06T00:46:07.593Z,966.00
2016-12-06T00:47:08.194Z,966.02
2016-12-06T00:48:07.742Z,966.02
2016-12-06T00:49:08.373Z,966.02
2016-12-06T00:50:08.005Z,966.01
2016-12-06T00:51:07.787Z,966.09
2016-12-06T00:53:08.303Z,966.06
2016-12-06T00:54:07.933Z,966.06
2016-12-06T00:55:07.606Z,966.05
2016-12-06T00:56:08.241Z,966.06
2016-12-06T00:57:07.814Z,966.12
2016-12-06T00:58:07.358Z,966.13
2016-12-06T00:59:07.903Z,966.11
2016-12-06T01:00:07.781Z,966.11
2016-12-06T01:01:07.359Z,966.12
2016-12-06T01:02:08.258Z,966.11
2016-12-06T01:03:07.833Z,966.05
2016-12-06T01:04:07.490Z,966.13
2016-12-06T01:05:09.084Z,966.06
2016-12-06T01:06:07.725Z,966.07
2016-12-06T01:07:07.643Z,966.05
2016-12-06T01:08:08.228Z,966.05
2016-12-06T01:09:08.119Z,966.03
2016-12-06T01:10:07.547Z,966.07
2016-12-06T01:11:07.341Z,966.08
2016-12-06T01:12:08.149Z,966.08
2016-12-06T01:13:08.708Z,966.09
2016-12-06T01:14:08.240Z,966.11
2016-12-06T01:15:07.980Z,966.13
2016-12-06T01:16:07.642Z,966.14
2016-12-06T01:17:07.973Z,966.15
2016-12-06T01:18:08.472Z,966.16
2016-12-06T01:19:08.113Z,966.17
2016-12-06T01:20:07.561Z,966.19
2016-12-06T01:21:07.271Z,966.22
2016-12-06T01:22:07.774Z,966.24
2016-12-06T01:23:08.288Z,966.25
2016-12-06T01:24:07.983Z,966.26
2016-12-06T01:25:07.526Z,966.25
2016-12-06T01:26:08.321Z,966.27
2016-12-06T01:27:07.885Z,966.24
2016-12-06T01:28:07.966Z,966.24
2016-12-06T01:29:07.891Z,966.23
2016-12-06T01:30:07.439Z,966.22
2016-12-06T01:31:08.023Z,966.22
2016-12-06T01:32:07.523Z,966.24
2016-12-06T01:33:08.057Z,966.25
2016-12-06T01:34:07.643Z,966.26
2016-12-06T01:35:08.269Z,966.24
2016-12-06T01:36:07.864Z,966.28
2016-12-06T01:37:07.401Z,966.29
2016-12-06T01:38:08.142Z,966.24
2016-12-06T01:40:08.039Z,966.27
2016-12-06T01:41:07.734Z,966.31
2016-12-06T01:42:08.422Z,966.24
2016-12-06T01:43:08.000Z,966.24
2016-12-06T01:44:07.605Z,966.21
2016-12-06T01:45:08.301Z,966.26
2016-12-06T01:46:07.870Z,966.26
2016-12-06T01:47:07.460Z,966.33
2016-12-06T01:48:08.001Z,966.34
2016-12-06T01:49:07.526Z,966.34
2016-12-06T01:50:08.215Z,966.38
2016-12-06T01:51:07.848Z,966.33
2016-12-06T01:52:07.360Z,966.32
2016-12-06T01:53:08.010Z,966.34
2016-12-06T01:54:07.530Z,966.36
2016-12-06T01:55:09.362Z,966.34
2016-12-06T01:56:07.911Z,966.28
2016-12-06T01:57:07.501Z,966.39
2016-12-06T01:58:08.300Z,966.41
2016-12-06T01:59:07.908Z,966.39
2016-12-06T02:00:07.482Z,966.41
2016-12-06T02:01:08.114Z,966.40
2016-12-06T02:02:07.750Z,966.43
2016-12-06T02:03:07.681Z,966.46
2016-12-06T02:04:08.160Z,966.44
2016-12-06T02:05:07.673Z,966.48
2016-12-06T02:06:08.136Z,966.46
2016-12-06T02:07:08.040Z,966.45
2016-12-06T02:08:07.560Z,966.38
2016-12-06T02:09:08.053Z,966.39
2016-12-06T02:10:07.572Z,966.41
2016-12-06T02:11:09.005Z,966.40
2016-12-06T02:12:07.562Z,966.41
2016-12-06T02:13:07.389Z,966.44
2016-12-06T02:14:07.982Z,966.48
2016-12-06T02:15:07.581Z,966.49
2016-12-06T02:16:08.339Z,966.50
2016-12-06T02:17:07.980Z,966.49
2016-12-06T02:18:08.028Z,966.53
2016-12-06T02:19:07.852Z,966.53
2016-12-06T02:20:07.470Z,966.47
2016-12-06T02:21:08.184Z,966.53
2016-12-06T02:22:08.790Z,966.46
2016-12-06T02:23:07.369Z,966.46
2016-12-06T02:24:09.028Z,966.48
2016-12-06T02:25:07.679Z,966.42
2016-12-06T02:26:07.435Z,966.52
2016-12-06T02:27:08.147Z,966.48
2016-12-06T02:28:07.561Z,966.52
2016-12-06T02:29:08.160Z,966.49
2016-12-06T02:30:07.627Z,966.54
2016-12-06T02:31:08.322Z,966.49
2016-12-06T02:32:07.959Z,966.46
2016-12-06T02:33:07.619Z,966.45
2016-12-06T02:34:08.212Z,966.42
2016-12-06T02:35:07.798Z,966.52
2016-12-06T02:37:08.144Z,966.40
2016-12-06T02:38:07.682Z,966.39
2016-12-06T02:39:08.966Z,966.44
2016-12-06T02:40:07.502Z,966.41
2016-12-06T02:41:08.160Z,966.46
2016-12-06T02:42:07.689Z,966.41
2016-12-06T02:43:09.495Z,966.40
2016-12-06T02:44:08.103Z,966.45
2016-12-06T02:45:07.735Z,966.42
2016-12-06T02:46:08.413Z,966.39
2016-12-06T02:47:08.089Z,966.42
2016-12-06T02:48:07.716Z,966.39
2016-12-06T02:50:07.653Z,966.37
2016-12-06T02:51:08.344Z,966.40
2016-12-06T02:52:07.966Z,966.39
2016-12-06T02:53:07.828Z,966.42
2016-12-06T02:57:08.034Z,966.40
2016-12-06T02:58:07.994Z,966.37
2016-12-06T02:59:07.767Z,966.38
2016-12-06T03:00:07.787Z,966.43
2016-12-06T03:02:09.741Z,966.38
2016-12-06T03:03:08.123Z,966.34
2016-12-06T03:08:08.193Z,966.42
2016-12-06T03:09:07.499Z,966.44
2016-12-06T03:11:08.163Z,966.41
2016-12-06T03:12:07.808Z,966.44
2016-12-06T03:13:07.349Z,966.40
2016-12-06T03:14:07.952Z,966.38
2016-12-06T03:15:07.441Z,966.41
2016-12-06T03:17:08.334Z,966.38
2016-12-06T03:18:07.945Z,966.37
2016-12-06T03:19:07.444Z,966.38
2016-12-06T03:20:08.162Z,966.36
2016-12-06T03:21:08.154Z,966.35
2016-12-06T03:22:07.903Z,966.37
2016-12-06T03:23:07.605Z,966.37
2016-12-06T03:24:08.148Z,966.32
2016-12-06T03:25:07.714Z,966.28
2016-12-06T03:26:08.375Z,966.25
2016-12-06T03:27:08.690Z,966.35
2016-12-06T03:28:08.272Z,966.34
2016-12-06T03:29:07.925Z,966.37
2016-12-06T03:30:07.537Z,966.43
2016-12-06T03:31:08.185Z,966.42
2016-12-06T03:33:07.532Z,966.42
2016-12-06T03:34:08.651Z,966.51
2016-12-06T03:35:08.517Z,966.44
2016-12-06T03:36:10.352Z,966.45
2016-12-06T03:37:08.001Z,966.43
2016-12-06T03:38:08.241Z,966.42
2016-12-06T03:40:08.072Z,966.49
2016-12-06T03:41:07.578Z,966.47
2016-12-06T03:42:08.133Z,966.52
2016-12-06T03:43:08.651Z,966.52
2016-12-06T03:44:08.323Z,966.53
2016-12-06T03:45:08.064Z,966.51
2016-12-06T03:46:07.734Z,966.55
2016-12-06T03:47:08.460Z,966.51
2016-12-06T03:48:08.027Z,966.53
2016-12-06T03:49:07.557Z,966.57
2016-12-06T03:50:08.143Z,966.57
2016-12-06T03:51:07.559Z,966.58
2016-12-06T03:52:08.129Z,966.58
2016-12-06T03:53:07.636Z,966.64
2016-12-06T03:54:08.233Z,966.62
2016-12-06T03:55:08.704Z,966.62
2016-12-06T03:56:08.362Z,966.63
2016-12-06T03:57:09.744Z,966.60
2016-12-06T03:59:07.489Z,966.51
2016-12-06T04:01:07.806Z,966.56
2016-12-06T04:02:07.425Z,966.57
2016-12-06T04:03:07.955Z,966.55
2016-12-06T04:04:07.544Z,966.56
2016-12-06T04:05:08.137Z,966.55
2016-12-06T04:08:07.574Z,966.55
2016-12-06T04:09:14.646Z,966.54
2016-12-06T04:10:08.344Z,966.53
2016-12-06T04:11:07.983Z,966.52
2016-12-06T04:12:07.520Z,966.55
2016-12-06T04:13:08.199Z,966.53
2016-12-06T04:14:08.072Z,966.53
2016-12-06T04:15:07.665Z,966.59
2016-12-06T04:16:08.271Z,966.55
2016-12-06T04:17:08.827Z,966.52
2016-12-06T04:18:07.693Z,966.53
2016-12-06T04:19:08.377Z,966.49
2016-12-06T04:20:07.911Z,966.48
2016-12-06T04:21:07.442Z,966.44
2016-12-06T04:22:08.078Z,966.48
2016-12-06T04:23:07.577Z,966.45
2016-12-06T04:24:08.203Z,966.54
2016-12-06T04:25:07.823Z,966.43
2016-12-06T04:26:07.304Z,966.44
2016-12-06T04:27:07.865Z,966.46
2016-12-06T04:28:07.451Z,966.42
2016-12-06T04:29:07.980Z,966.43
2016-12-06T04:30:08.323Z,966.43
2016-12-06T04:31:07.811Z,966.44
2016-12-06T04:32:07.344Z,966.47
2016-12-06T04:33:07.867Z,966.48
2016-12-06T04:34:07.329Z,966.51
2016-12-06T04:35:07.870Z,966.51
2016-12-06T04:36:07.321Z,966.52
2016-12-06T04:37:07.915Z,966.54
2016-12-06T04:38:07.399Z,966.53
2016-12-06T04:39:07.992Z,966.60
2016-12-06T04:40:07.563Z,966.52
2016-12-06T04:41:08.161Z,966.56
2016-12-06T04:42:07.714Z,966.58
2016-12-06T04:43:08.302Z,966.60
2016-12-06T04:44:07.973Z,966.60
2016-12-06T04:45:07.530Z,966.64
2016-12-06T04:46:08.054Z,966.60
2016-12-06T04:47:07.602Z,966.60
2016-12-06T04:48:08.211Z,966.60
2016-12-06T04:49:07.703Z,966.63
2016-12-06T04:50:08.310Z,966.59
2016-12-06T04:51:07.869Z,966.61
2016-12-06T04:52:07.335Z,966.58
2016-12-06T04:53:08.437Z,966.55
2016-12-06T04:54:07.900Z,966.60
2016-12-06T04:55:07.269Z,966.56
2016-12-06T04:56:07.851Z,966.56
2016-12-06T04:57:07.458Z,966.57
2016-12-06T04:58:08.071Z,966.56
2016-12-06T04:59:07.733Z,966.58
2016-12-06T05:00:08.692Z,966.56
2016-12-06T05:01:08.233Z,966.52
2016-12-06T05:02:07.527Z,966.52
2016-12-06T05:03:08.157Z,966.51
2016-12-06T05:04:07.660Z,966.53
2016-12-06T05:05:08.369Z,966.53
2016-12-06T05:07:08.156Z,966.53
2016-12-06T05:08:07.771Z,966.52
2016-12-06T05:09:07.351Z,966.56
2016-12-06T05:10:07.941Z,966.54
2016-12-06T05:11:07.571Z,966.49
2016-12-06T05:12:08.078Z,966.49
2016-12-06T05:13:07.569Z,966.46
2016-12-06T05:14:08.192Z,966.47
2016-12-06T05:15:07.691Z,966.46
2016-12-06T05:16:08.282Z,966.45
2016-12-06T05:17:07.926Z,966.43
2016-12-06T05:18:07.511Z,966.45
2016-12-06T05:19:08.142Z,966.44
2016-12-06T05:20:07.622Z,966.49
2016-12-06T05:21:08.125Z,966.48
2016-12-06T05:22:07.638Z,966.48
2016-12-06T05:23:08.192Z,966.46
2016-12-06T05:24:07.783Z,966.52
2016-12-06T05:25:10.214Z,966.54
2016-12-06T05:26:07.962Z,966.55
2016-12-06T05:27:07.487Z,966.57
2016-12-06T05:28:08.100Z,966.57
2016-12-06T05:29:07.576Z,966.57
2016-12-06T05:30:08.166Z,966.57
2016-12-06T05:31:07.542Z,966.54
2016-12-06T05:32:08.097Z,966.56
2016-12-06T05:33:08.136Z,966.63
2016-12-06T05:34:07.607Z,966.51
2016-12-06T05:35:08.231Z,966.59
2016-12-06T05:36:08.002Z,966.60
2016-12-06T05:37:07.558Z,966.57
2016-12-06T05:38:08.143Z,966.59
2016-12-06T05:39:07.651Z,966.57
2016-12-06T05:40:08.118Z,966.55
2016-12-06T05:41:08.141Z,966.55
2016-12-06T05:42:07.621Z,966.52
2016-12-06T05:43:08.141Z,966.60
2016-12-06T05:44:07.633Z,966.57
2016-12-06T05:45:08.201Z,966.56
2016-12-06T05:46:07.739Z,966.61
2016-12-06T05:47:07.328Z,966.60
2016-12-06T05:48:07.914Z,966.58
2016-12-06T05:49:07.487Z,966.63
2016-12-06T05:50:08.080Z,966.62
2016-12-06T05:51:07.871Z,966.65
2016-12-06T05:52:07.420Z,966.58
2016-12-06T05:53:08.061Z,966.62
2016-12-06T05:54:07.597Z,966.64
2016-12-06T05:55:08.124Z,966.63
2016-12-06T05:56:07.609Z,966.62
2016-12-06T05:57:08.038Z,966.67
2016-12-06T05:58:07.884Z,966.68
2016-12-06T05:59:07.518Z,966.65
2016-12-06T06:00:08.140Z,966.66
2016-12-06T06:01:07.754Z,966.65
2016-12-06T06:02:07.297Z,966.62
2016-12-06T06:03:07.802Z,966.65
2016-12-06T06:04:07.361Z,966.64
2016-12-06T06:05:08.029Z,966.63
2016-12-06T06:06:07.793Z,966.65
2016-12-06T06:07:07.410Z,966.67
2016-12-06T06:08:07.961Z,966.64
2016-12-06T06:09:07.481Z,966.65
2016-12-06T06:10:07.948Z,966.65
2016-12-06T06:11:08.093Z,966.71
2016-12-06T06:12:07.651Z,966.69
2016-12-06T06:13:08.298Z,966.71
2016-12-06T06:14:07.883Z,966.69
2016-12-06T06:15:07.411Z,966.83
2016-12-06T06:16:08.040Z,966.74
2016-12-06T06:17:07.749Z,966.79
2016-12-06T06:18:08.380Z,966.79
2016-12-06T06:19:07.965Z,966.85
2016-12-06T06:20:07.558Z,966.80
2016-12-06T06:21:08.131Z,966.79
2016-12-06T06:22:07.755Z,966.86
2016-12-06T06:23:08.321Z,966.81
2016-12-06T06:24:07.881Z,966.79
2016-12-06T06:25:07.440Z,966.79
2016-12-06T06:26:08.145Z,966.81
2016-12-06T06:27:07.755Z,966.78
2016-12-06T06:28:09.039Z,966.79
2016-12-06T06:29:07.636Z,966.79
2016-12-06T06:30:08.167Z,966.77
2016-12-06T06:31:08.360Z,966.83
2016-12-06T06:32:08.344Z,966.79
2016-12-06T06:33:08.097Z,966.77
2016-12-06T06:34:09.116Z,966.74
2016-12-06T06:35:07.324Z,966.78
2016-12-06T06:36:08.009Z,966.78
2016-12-06T06:37:07.619Z,966.75
2016-12-06T06:38:08.242Z,966.77
2016-12-06T06:39:07.825Z,966.80
2016-12-06T06:40:07.384Z,966.80
2016-12-06T06:41:07.912Z,966.74
2016-12-06T06:42:07.562Z,966.80
2016-12-06T06:43:08.229Z,966.81
2016-12-06T06:44:07.659Z,966.79
2016-12-06T06:45:08.308Z,966.81
2016-12-06T06:46:07.743Z,966.77
2016-12-06T06:47:08.420Z,966.83
2016-12-06T06:48:07.916Z,966.81
2016-12-06T06:49:07.426Z,966.81
2016-12-06T06:50:07.931Z,966.83
2016-12-06T06:51:07.459Z,966.85
2016-12-06T06:52:07.989Z,966.82
2016-12-06T06:53:07.463Z,966.82
2016-12-06T06:54:08.109Z,966.89
2016-12-06T06:55:07.760Z,966.84
2016-12-06T06:57:07.706Z,966.87
2016-12-06T06:57:10.386Z,966.85
2016-12-06T06:58:07.924Z,966.86
2016-12-06T06:59:07.445Z,966.88
2016-12-06T07:00:08.021Z,966.94
2016-12-06T07:01:07.582Z,966.94
2016-12-06T07:02:08.134Z,966.93
2016-12-06T07:03:07.760Z,966.93
2016-12-06T07:04:07.408Z,966.94
2016-12-06T07:05:07.992Z,966.96
2016-12-06T07:06:07.679Z,967.01
2016-12-06T07:07:13.796Z,967.01
2016-12-06T07:08:07.332Z,967.01
2016-12-06T07:09:07.910Z,967.04
2016-12-06T07:10:07.430Z,967.00
2016-12-06T07:11:08.029Z,967.04
2016-12-06T07:12:07.622Z,967.02
2016-12-06T07:13:08.248Z,967.05
2016-12-06T07:14:07.836Z,967.03
2016-12-06T07:15:07.418Z,967.04
2016-12-06T07:16:08.069Z,967.06
2016-12-06T07:17:07.792Z,967.09
2016-12-06T07:18:07.303Z,967.14
2016-12-06T07:19:07.878Z,967.14
2016-12-06T07:20:07.518Z,967.10
2016-12-06T07:21:08.078Z,967.13
2016-12-06T07:22:07.611Z,967.11
2016-12-06T07:23:08.258Z,967.16
2016-12-06T07:24:07.760Z,967.16
2016-12-06T07:25:07.394Z,967.18
2016-12-06T07:26:07.958Z,967.18
2016-12-06T07:27:13.168Z,967.19
2016-12-06T07:28:07.795Z,967.19
2016-12-06T07:29:07.269Z,967.19
2016-12-06T07:30:07.909Z,967.19
2016-12-06T07:31:07.391Z,967.21
2016-12-06T07:32:08.550Z,967.25
2016-12-06T07:33:08.132Z,967.22
2016-12-06T07:34:07.753Z,967.25
2016-12-06T07:35:07.301Z,967.27
2016-12-06T07:36:08.033Z,967.30
2016-12-06T07:37:07.689Z,967.35
2016-12-06T07:38:08.554Z,967.31
2016-12-06T07:39:08.140Z,967.32
2016-12-06T07:40:07.697Z,967.29
2016-12-06T07:41:08.411Z,967.27
2016-12-06T07:42:08.048Z,967.32
2016-12-06T07:43:07.599Z,967.32
2016-12-06T07:44:08.235Z,967.31
2016-12-06T07:45:07.807Z,967.36
2016-12-06T07:46:07.299Z,967.39
2016-12-06T07:47:07.991Z,967.37
2016-12-06T07:48:07.650Z,967.36
2016-12-06T07:49:08.308Z,967.37
2016-12-06T07:50:07.819Z,967.40
2016-12-06T07:51:07.332Z,967.39
2016-12-06T07:52:07.956Z,967.49
2016-12-06T07:53:07.460Z,967.45
2016-12-06T07:54:07.980Z,967.42
2016-12-06T07:55:07.502Z,967.56
2016-12-06T07:56:08.017Z,967.48
2016-12-06T07:57:07.510Z,967.48
2016-12-06T07:58:08.142Z,967.53
2016-12-06T07:59:07.660Z,967.54
2016-12-06T08:00:08.180Z,967.56
2016-12-06T08:01:07.715Z,967.56
2016-12-06T08:02:14.911Z,967.56
2016-12-06T08:03:07.557Z,967.55
2016-12-06T08:04:08.180Z,967.60
2016-12-06T08:05:07.697Z,967.57
2016-12-06T08:06:08.560Z,967.63
2016-12-06T08:07:08.225Z,967.60
2016-12-06T08:08:07.731Z,967.62
2016-12-06T08:09:08.366Z,967.66
2016-12-06T08:10:07.944Z,967.69
2016-12-06T08:11:07.499Z,967.68
2016-12-06T08:12:08.103Z,967.69
2016-12-06T08:13:07.646Z,967.69
2016-12-06T08:14:08.252Z,967.70
2016-12-06T08:15:07.849Z,967.68
2016-12-06T08:16:07.372Z,967.70
2016-12-06T08:17:08.093Z,967.68
2016-12-06T08:18:07.616Z,967.71
2016-12-06T08:19:08.203Z,967.71
2016-12-06T08:20:07.784Z,967.70
2016-12-06T08:21:07.364Z,967.72
2016-12-06T08:22:07.972Z,967.79
2016-12-06T08:23:14.075Z,967.75
2016-12-06T08:24:07.670Z,967.83
2016-12-06T08:25:08.252Z,967.82
2016-12-06T08:26:07.832Z,967.87
2016-12-06T08:27:07.357Z,967.89
2016-12-06T08:28:08.069Z,967.86
2016-12-06T08:29:07.552Z,967.91
2016-12-06T08:30:08.107Z,967.90
2016-12-06T08:31:07.550Z,967.90
2016-12-06T08:32:08.168Z,967.91
2016-12-06T08:33:07.813Z,967.91
2016-12-06T08:34:07.282Z,967.92
2016-12-06T08:35:07.825Z,967.94
2016-12-06T08:36:07.423Z,967.99
2016-12-06T08:37:08.079Z,967.90
2016-12-06T08:38:07.635Z,967.94
2016-12-06T08:39:08.308Z,967.94
2016-12-06T08:40:07.875Z,967.99
2016-12-06T08:41:07.448Z,967.97
2016-12-06T08:42:08.053Z,968.01
2016-12-06T08:43:07.617Z,968.02
2016-12-06T08:44:08.151Z,968.03
2016-12-06T08:45:07.714Z,968.01
2016-12-06T08:46:08.435Z,968.07
2016-12-06T08:47:07.976Z,968.05
2016-12-06T08:48:07.553Z,968.04
2016-12-06T08:49:08.244Z,968.07
2016-12-06T08:50:07.848Z,968.09
2016-12-06T08:51:07.434Z,968.10
2016-12-06T08:52:08.101Z,968.12
2016-12-06T08:53:07.801Z,968.09
2016-12-06T08:54:07.355Z,968.10
2016-12-06T08:55:07.845Z,968.10
2016-12-06T08:56:07.430Z,968.11
2016-12-06T08:57:07.929Z,968.10
2016-12-06T08:58:07.803Z,968.10
2016-12-06T08:59:07.311Z,968.12
2016-12-06T09:00:07.904Z,968.11
2016-12-06T09:01:07.401Z,968.14
2016-12-06T09:02:08.024Z,968.13
2016-12-06T09:03:07.550Z,968.13
2016-12-06T09:04:08.076Z,968.13
2016-12-06T09:05:07.724Z,968.13
2016-12-06T09:06:08.433Z,968.16
2016-12-06T09:07:08.090Z,968.12
2016-12-06T09:08:07.614Z,968.15
2016-12-06T09:09:08.163Z,968.18
2016-12-06T09:10:07.684Z,968.21
2016-12-06T09:11:08.211Z,968.20
2016-12-06T09:12:07.727Z,968.21
2016-12-06T09:13:08.433Z,968.20
2016-12-06T09:14:08.030Z,968.20
2016-12-06T09:15:07.501Z,968.18
2016-12-06T09:16:08.134Z,968.16
2016-12-06T09:17:07.804Z,968.20
2016-12-06T09:18:07.397Z,968.15
2016-12-06T09:19:08.035Z,968.21
2016-12-06T09:20:07.517Z,968.21
2016-12-06T09:21:08.139Z,968.26
2016-12-06T09:22:07.766Z,968.24
2016-12-06T09:23:07.393Z,968.20
2016-12-06T09:24:07.957Z,968.20
2016-12-06T09:25:07.473Z,968.13
2016-12-06T09:26:08.143Z,968.14
2016-12-06T09:27:13.379Z,968.13
2016-12-06T09:28:07.996Z,968.12
2016-12-06T09:29:07.532Z,968.10
2016-12-06T09:30:08.226Z,968.14
2016-12-06T09:31:07.813Z,968.13
2016-12-06T09:32:07.406Z,968.11
2016-12-06T09:33:07.937Z,968.09
2016-12-06T09:34:07.454Z,968.14
2016-12-06T09:35:08.173Z,968.13
2016-12-06T09:36:07.808Z,968.14
2016-12-06T09:37:07.368Z,968.15
2016-12-06T09:38:07.924Z,968.10
2016-12-06T09:39:07.533Z,968.08
2016-12-06T09:40:08.132Z,968.10
2016-12-06T09:41:07.684Z,968.10
2016-12-06T09:42:08.204Z,968.10
2016-12-06T09:43:07.688Z,968.10
2016-12-06T09:44:08.297Z,968.17
2016-12-06T09:45:07.843Z,968.14
2016-12-06T09:46:07.399Z,968.13
2016-12-06T09:47:07.988Z,968.15
2016-12-06T09:48:07.519Z,968.11
2016-12-06T09:49:08.076Z,968.09
2016-12-06T09:50:07.666Z,968.11
2016-12-06T09:51:08.024Z,968.10
2016-12-06T09:52:08.660Z,968.04
2016-12-06T09:53:07.554Z,968.08
2016-12-06T09:54:08.030Z,968.05
2016-12-06T09:55:08.276Z,968.09
2016-12-06T09:56:07.745Z,968.07
2016-12-06T09:57:07.292Z,968.09
2016-12-06T09:58:07.832Z,968.11
2016-12-06T09:59:08.724Z,968.09
2016-12-06T10:00:08.290Z,968.07
2016-12-06T10:01:07.864Z,968.08
2016-12-06T10:02:07.425Z,968.06
2016-12-06T10:03:09.307Z,968.10
2016-12-06T10:04:07.891Z,968.06
2016-12-06T10:05:07.477Z,968.07
2016-12-06T10:06:08.138Z,968.05
2016-12-06T10:07:07.686Z,968.00
2016-12-06T10:08:08.246Z,968.00
2016-12-06T10:09:07.769Z,968.01
2016-12-06T10:10:07.287Z,968.00
2016-12-06T10:11:07.873Z,967.97
2016-12-06T10:12:07.649Z,968.01
2016-12-06T10:13:08.305Z,967.96
2016-12-06T10:14:07.855Z,967.93
2016-12-06T10:15:07.360Z,967.94
2016-12-06T10:16:07.898Z,967.93
2016-12-06T10:17:07.517Z,967.96
2016-12-06T10:18:08.133Z,967.95
2016-12-06T10:19:07.752Z,967.91
2016-12-06T10:20:08.389Z,967.92
2016-12-06T10:21:08.017Z,967.93
2016-12-06T10:22:07.587Z,967.95
2016-12-06T10:23:08.177Z,967.94
2016-12-06T10:24:07.765Z,967.95
2016-12-06T10:25:08.337Z,967.94
2016-12-06T10:26:07.865Z,967.92
2016-12-06T10:27:07.376Z,967.93
2016-12-06T10:28:07.975Z,967.90
2016-12-06T10:29:07.496Z,967.91
2016-12-06T10:30:08.030Z,967.93
2016-12-06T10:31:07.559Z,967.93
2016-12-06T10:32:08.193Z,967.96
2016-12-06T10:33:07.744Z,967.92
2016-12-06T10:34:08.257Z,967.93
2016-12-06T10:35:07.818Z,967.91
2016-12-06T10:36:07.456Z,967.95
2016-12-06T10:37:08.055Z,967.90
2016-12-06T10:38:08.526Z,967.92
2016-12-06T10:39:08.236Z,967.92
2016-12-06T10:40:07.865Z,967.89
2016-12-06T10:41:07.392Z,967.89
2016-12-06T10:42:08.186Z,967.88
2016-12-06T10:43:07.832Z,967.89
2016-12-06T10:44:07.429Z,967.84
2016-12-06T10:45:08.079Z,967.83
2016-12-06T10:46:07.618Z,967.85
2016-12-06T10:47:08.221Z,967.85
2016-12-06T10:48:07.794Z,967.83
2016-12-06T10:49:07.331Z,967.87
2016-12-06T10:50:07.503Z,967.82
2016-12-06T10:51:08.165Z,967.79
2016-12-06T10:52:07.787Z,967.76
2016-12-06T10:53:07.363Z,967.76
2016-12-06T10:54:07.941Z,967.73
2016-12-06T10:55:07.462Z,967.75
2016-12-06T10:56:08.056Z,967.79
2016-12-06T10:57:07.647Z,967.75
2016-12-06T10:58:08.324Z,967.72
2016-12-06T10:59:08.787Z,967.77
2016-12-06T11:00:07.346Z,967.73
2016-12-06T11:01:07.996Z,967.71
2016-12-06T11:02:07.548Z,967.77
2016-12-06T11:03:08.192Z,967.72
2016-12-06T11:04:07.824Z,967.73
2016-12-06T11:05:07.388Z,967.73
2016-12-06T11:06:08.116Z,967.74
2016-12-06T11:07:08.547Z,967.73
2016-12-06T11:08:08.127Z,967.72
2016-12-06T11:09:07.652Z,967.73
2016-12-06T11:10:08.375Z,967.73
2016-12-06T11:11:07.925Z,967.72
2016-12-06T11:12:07.921Z,967.72
2016-12-06T11:13:07.497Z,967.72
2016-12-06T11:14:08.048Z,967.67
2016-12-06T11:15:07.633Z,967.69
2016-12-06T11:16:08.223Z,967.73
2016-12-06T11:17:07.932Z,967.66
2016-12-06T11:18:07.568Z,967.70
2016-12-06T11:19:08.118Z,967.70
2016-12-06T11:20:07.633Z,967.64
2016-12-06T11:21:08.224Z,967.67
2016-12-06T11:22:07.811Z,967.61
2016-12-06T11:23:08.625Z,967.63
2016-12-06T11:24:08.219Z,967.66
2016-12-06T11:25:07.728Z,967.62
2016-12-06T11:26:08.356Z,967.66
2016-12-06T11:27:07.983Z,967.58
2016-12-06T11:28:07.579Z,967.62
2016-12-06T11:29:08.167Z,967.58
2016-12-06T11:30:07.690Z,967.52
2016-12-06T11:31:08.391Z,967.52
2016-12-06T11:32:07.982Z,967.53
2016-12-06T11:33:07.585Z,967.49
2016-12-06T11:34:08.292Z,967.46
2016-12-06T11:35:07.933Z,967.51
2016-12-06T11:36:07.651Z,967.49
2016-12-06T11:37:09.118Z,967.52
2016-12-06T11:38:13.694Z,967.48
2016-12-06T11:39:08.318Z,967.49
2016-12-06T11:40:07.962Z,967.52
2016-12-06T11:41:07.483Z,967.50
2016-12-06T11:42:08.338Z,967.47
2016-12-06T11:43:10.034Z,967.52
2016-12-06T11:44:07.672Z,967.52
2016-12-06T11:45:08.304Z,967.52
2016-12-06T11:46:07.907Z,967.57
2016-12-06T11:47:07.524Z,967.53
2016-12-06T11:48:08.051Z,967.54
2016-12-06T11:49:07.519Z,967.50
2016-12-06T11:50:08.111Z,967.47
2016-12-06T11:51:07.620Z,967.47
2016-12-06T11:52:08.271Z,967.52
2016-12-06T11:53:08.051Z,967.51
2016-12-06T11:54:07.576Z,967.45
2016-12-06T11:55:08.183Z,967.51
2016-12-06T11:56:07.807Z,967.48
2016-12-06T11:57:07.360Z,967.51
2016-12-06T11:58:07.839Z,967.47
2016-12-06T11:59:07.396Z,967.49
2016-12-06T12:00:07.931Z,967.44
2016-12-06T12:01:08.431Z,967.46
2016-12-06T12:02:08.080Z,967.44
2016-12-06T12:03:08.932Z,967.44
2016-12-06T12:04:07.814Z,967.43
2016-12-06T12:05:07.442Z,967.43
2016-12-06T12:06:08.136Z,967.46
2016-12-06T12:07:07.739Z,967.48
2016-12-06T12:08:08.422Z,967.45
2016-12-06T12:09:07.996Z,967.43
2016-12-06T12:10:07.631Z,967.46
2016-12-06T12:11:08.445Z,967.43
2016-12-06T12:12:08.114Z,967.43
2016-12-06T12:13:07.886Z,967.42
2016-12-06T12:14:07.684Z,967.40
2016-12-06T12:15:09.203Z,967.39
2016-12-06T12:16:07.963Z,967.39
2016-12-06T12:17:07.786Z,967.37
2016-12-06T12:18:07.436Z,967.41
2016-12-06T12:19:08.037Z,967.42
2016-12-06T12:20:07.783Z,967.40
2016-12-06T12:21:07.542Z,967.46
2016-12-06T12:22:08.328Z,967.43
2016-12-06T12:23:07.943Z,967.42
2016-12-06T12:24:07.565Z,967.44
2016-12-06T12:25:08.188Z,967.46
2016-12-06T12:27:08.046Z,967.44
2016-12-06T12:28:07.688Z,967.48
2016-12-06T12:30:07.560Z,967.46
2016-12-06T12:31:07.998Z,967.47
2016-12-06T12:32:07.784Z,967.46
2016-12-06T12:33:07.444Z,967.43
2016-12-06T12:34:08.124Z,967.45
2016-12-06T12:35:07.738Z,967.44
2016-12-06T12:36:08.374Z,967.43
2016-12-06T12:37:08.052Z,967.42
2016-12-06T12:38:18.550Z,967.34
2016-12-06T12:39:08.281Z,967.41
2016-12-06T12:40:08.149Z,967.36
2016-12-06T12:41:07.763Z,967.35
2016-12-06T12:42:07.432Z,967.35
2016-12-06T12:43:08.112Z,967.36
2016-12-06T12:44:07.634Z,967.35
2016-12-06T12:45:08.346Z,967.36
2016-12-06T12:46:07.973Z,967.32
2016-12-06T12:47:08.298Z,967.33
2016-12-06T12:48:07.914Z,967.32
2016-12-06T12:49:07.524Z,967.30
2016-12-06T12:51:08.372Z,967.29
2016-12-06T12:52:09.549Z,967.28